Chernjaevo, Russia
Current Conditions -  °F | °C
As of 9:30 AM on Tuesday 25 Nov 2014 (Local Time) from UHBB Reporting Station
Clear Clear  
Wind Chill:   Ceiling: Unl
Heat Index: 12°   Visibility: 6mi
Dew Point:   Wind: 7mph
Humidity: 79%   Direction: 200°SSW
Pressure: 30.03"   Gusts: NA
Location:  52.78°N, 126°E
Report Text: UHBB 250030Z 20003MPS 150V230 CAVOK M11/M14 Q1017 NOSIG RMKQFE745/0994 36810350
Loading
Personal Weather Stations






























Interactive Weather Map New forecast layout! Learn more

10-Day Weather Forecast

Advertisements
Track Severe Weather on mobile